Climatologie pour Saint-Brevin les Pins
Jour • Résumé pour mai 8, 2017 Système :  Métrique    Anglais   Mixte
« - 1 jour
+ 1 jour »
Jour Semaine Mois Année Personnalisé
  Maximum : Minimum : Moyenne :
Température sous abri : 20.2 °C 6.2 °C 13.2 °C
Point de rosée : 13.2 °C 5.6 °C 9.4 °C
Humidité : 97 % 59 % 79 %
Vitesse du vent : 22.5 km/h 0.0 km/h 5.3 km/h
Rafale : 30.6 km/h - -
Direction :- - ENE
Pression : 1024.6 hPa 1021.6 hPa -
Précipitations : 0.0 mm    
Historical Graphs
 
 
Tableau de données pour mai 8, 2017
Heure Tempé Pt rosée Pression Vent Vitesse Rafale Humidité Taux pluie (/hr) Soleil
00:00 11.1 °C 10.5 °C 1023.2 hPa NNE 3.2 km/h 8.0 km/h 96 % 0.0 mm 0 W/m2
00:05 11.2 °C 10.7 °C 1023.2 hPa NE 1.6 km/h 8.0 km/h 97 % 0.0 mm 0 W/m2
00:15 11.1 °C 10.5 °C 1023.2 hPa Calm   11.3 km/h 96 % 0.0 mm 0 W/m2
00:20 11.0 °C 10.4 °C 1023.2 hPa NE 4.8 km/h 14.5 km/h 96 % 0.0 mm 0 W/m2
00:25 10.8 °C 10.2 °C 1023.2 hPa North 4.8 km/h 14.5 km/h 96 % 0.0 mm 0 W/m2
00:30 10.8 °C 10.0 °C 1023.2 hPa Calm   12.9 km/h 95 % 0.0 mm 0 W/m2
00:35 10.7 °C 9.9 °C 1023.2 hPa NE 4.8 km/h 12.9 km/h 95 % 0.0 mm 0 W/m2
00:40 10.5 °C 9.6 °C 1023.2 hPa NNE 4.8 km/h 12.9 km/h 94 % 0.0 mm 0 W/m2
00:45 10.4 °C 9.5 °C 1023.2 hPa NE 6.4 km/h 11.3 km/h 94 % 0.0 mm 0 W/m2
00:50 10.3 °C 9.4 °C 1023.2 hPa Calm   11.3 km/h 94 % 0.0 mm 0 W/m2
00:55 10.2 °C 9.1 °C 1023.2 hPa ENE 3.2 km/h 9.7 km/h 93 % 0.0 mm 0 W/m2
01:00 10.2 °C 9.2 °C 1023.2 hPa ENE 1.6 km/h 9.7 km/h 94 % 0.0 mm 0 W/m2
01:10 9.9 °C 8.8 °C 1023.2 hPa NE 1.6 km/h 8.0 km/h 93 % 0.0 mm 0 W/m2
01:15 9.7 °C 8.8 °C 1023.2 hPa NE 6.4 km/h 8.0 km/h 94 % 0.0 mm 0 W/m2
01:20 9.6 °C 8.5 °C 1023.2 hPa NE 3.2 km/h 8.0 km/h 93 % 0.0 mm 0 W/m2
01:25 9.5 °C 8.6 °C 1023.2 hPa NNE 3.2 km/h 6.4 km/h 94 % 0.0 mm 0 W/m2
01:30 9.4 °C 8.4 °C 1023.2 hPa North 3.2 km/h 6.4 km/h 93 % 0.0 mm 0 W/m2
01:35 9.3 °C 8.4 °C 1023.6 hPa NNE 1.6 km/h 6.4 km/h 94 % 0.0 mm 0 W/m2
01:40 9.2 °C 8.3 °C 1023.6 hPa Calm   6.4 km/h 94 % 0.0 mm 0 W/m2
01:45 9.1 °C 8.2 °C 1023.6 hPa North 3.2 km/h 6.4 km/h 94 % 0.0 mm 0 W/m2
01:50 8.9 °C 8.0 °C 1023.6 hPa Calm   4.8 km/h 94 % 0.0 mm 0 W/m2
01:55 8.8 °C 7.9 °C 1023.6 hPa North 1.6 km/h 6.4 km/h 94 % 0.0 mm 0 W/m2
02:00 8.7 °C 7.8 °C 1023.6 hPa Calm   6.4 km/h 94 % 0.0 mm 0 W/m2
02:05 8.6 °C 7.8 °C 1023.6 hPa North 1.6 km/h 6.4 km/h 95 % 0.0 mm 0 W/m2
02:10 8.5 °C 7.7 °C 1023.6 hPa Calm   4.8 km/h 95 % 0.0 mm 0 W/m2
02:15 8.4 °C 7.7 °C 1023.6 hPa Calm   4.8 km/h 95 % 0.0 mm 0 W/m2
02:20 8.4 °C 7.7 °C 1023.6 hPa NE 8.0 km/h 9.7 km/h 95 % 0.0 mm 0 W/m2
02:25 8.6 °C 8.0 °C 1023.6 hPa North 1.6 km/h 9.7 km/h 96 % 0.0 mm 0 W/m2
02:30 8.7 °C 7.9 °C 1023.6 hPa NNE 3.2 km/h 8.0 km/h 95 % 0.0 mm 0 W/m2
02:35 8.6 °C 7.9 °C 1023.6 hPa Calm   8.0 km/h 95 % 0.0 mm 0 W/m2
02:40 8.6 °C 7.8 °C 1023.6 hPa NNE 3.2 km/h 8.0 km/h 95 % 0.0 mm 0 W/m2
02:45 8.5 °C 7.7 °C 1023.6 hPa Calm   8.0 km/h 95 % 0.0 mm 0 W/m2
02:50 8.4 °C 7.6 °C 1023.6 hPa NNE 1.6 km/h 8.0 km/h 95 % 0.0 mm 0 W/m2
02:55 8.3 °C 7.6 °C 1023.6 hPa Calm   8.0 km/h 95 % 0.0 mm 0 W/m2
03:00 8.3 °C 7.5 °C 1023.6 hPa NNE 3.2 km/h 9.7 km/h 95 % 0.0 mm 0 W/m2
03:05 8.3 °C 7.6 °C 1023.6 hPa Calm   12.9 km/h 95 % 0.0 mm 0 W/m2
03:15 8.3 °C 7.5 °C 1023.6 hPa NNE 4.8 km/h 11.3 km/h 95 % 0.0 mm 0 W/m2
03:20 8.1 °C 7.4 °C 1023.6 hPa NNE 1.6 km/h 8.0 km/h 95 % 0.0 mm 0 W/m2
03:25 8.0 °C 7.2 °C 1023.6 hPa NNE 3.2 km/h 9.7 km/h 95 % 0.0 mm 0 W/m2
03:30 8.1 °C 7.4 °C 1023.6 hPa NE 3.2 km/h 9.7 km/h 95 % 0.0 mm 0 W/m2
03:35 8.1 °C 7.3 °C 1023.6 hPa NE 4.8 km/h 9.7 km/h 95 % 0.0 mm 0 W/m2
03:40 8.1 °C 7.4 °C 1023.6 hPa Calm   9.7 km/h 95 % 0.0 mm 0 W/m2
03:45 8.2 °C 7.4 °C 1023.6 hPa NE 3.2 km/h 9.7 km/h 95 % 0.0 mm 0 W/m2
03:50 8.2 °C 7.4 °C 1023.6 hPa NNE 1.6 km/h 9.7 km/h 95 % 0.0 mm 0 W/m2
03:55 8.0 °C 7.2 °C 1023.2 hPa East 1.6 km/h 8.0 km/h 95 % 0.0 mm 0 W/m2
04:00 8.0 °C 7.1 °C 1023.2 hPa NE 6.4 km/h 8.0 km/h 94 % 0.0 mm 0 W/m2
04:05 8.0 °C 7.1 °C 1023.6 hPa ENE 1.6 km/h 8.0 km/h 94 % 0.0 mm 0 W/m2
04:10 7.9 °C 7.2 °C 1023.2 hPa Calm   11.3 km/h 95 % 0.0 mm 0 W/m2
04:15 7.9 °C 7.2 °C 1023.2 hPa NNE 1.6 km/h 11.3 km/h 95 % 0.0 mm 0 W/m2
04:20 7.9 °C 7.2 °C 1023.2 hPa NNE 6.4 km/h 11.3 km/h 95 % 0.0 mm 0 W/m2
04:25 7.9 °C 7.0 °C 1023.2 hPa NE 6.4 km/h 12.9 km/h 94 % 0.0 mm 0 W/m2
04:30 8.0 °C 7.1 °C 1023.2 hPa NNW 4.8 km/h 12.9 km/h 94 % 0.0 mm 0 W/m2
04:35 8.1 °C 7.1 °C 1023.2 hPa NNE 9.7 km/h 14.5 km/h 94 % 0.0 mm 0 W/m2
04:40 8.0 °C 7.1 °C 1023.2 hPa NNE 3.2 km/h 14.5 km/h 94 % 0.0 mm 0 W/m2
04:45 8.1 °C 7.1 °C 1023.2 hPa NNE 8.0 km/h 12.9 km/h 94 % 0.0 mm 0 W/m2
04:50 8.1 °C 7.1 °C 1023.2 hPa NE 1.6 km/h 12.9 km/h 94 % 0.0 mm 0 W/m2
04:55 8.1 °C 7.1 °C 1023.2 hPa Calm   12.9 km/h 94 % 0.0 mm 0 W/m2
05:00 8.0 °C 7.1 °C 1023.2 hPa NE 4.8 km/h 16.1 km/h 94 % 0.0 mm 0 W/m2
05:10 7.8 °C 6.9 °C 1023.2 hPa Calm   11.3 km/h 94 % 0.0 mm 0 W/m2
05:20 7.8 °C 6.9 °C 1023.2 hPa NE 4.8 km/h 9.7 km/h 94 % 0.0 mm 0 W/m2
05:25 7.6 °C 6.7 °C 1023.2 hPa NNE 3.2 km/h 11.3 km/h 94 % 0.0 mm 0 W/m2
05:30 7.6 °C 6.7 °C 1023.2 hPa Calm   11.3 km/h 94 % 0.0 mm 0 W/m2
05:35 7.7 °C 6.8 °C 1023.2 hPa NE 4.8 km/h 9.7 km/h 94 % 0.0 mm 0 W/m2
05:40 7.6 °C 6.7 °C 1023.2 hPa Calm   11.3 km/h 94 % 0.0 mm 0 W/m2
05:45 7.6 °C 6.8 °C 1023.2 hPa Calm   11.3 km/h 95 % 0.0 mm 0 W/m2
05:50 7.6 °C 6.9 °C 1023.2 hPa Calm   8.0 km/h 95 % 0.0 mm 0 W/m2
05:55 7.6 °C 6.9 °C 1023.2 hPa Calm   4.8 km/h 95 % 0.0 mm 0 W/m2
06:00 7.6 °C 6.7 °C 1023.2 hPa NE 3.2 km/h 4.8 km/h 94 % 0.0 mm 0 W/m2
06:05 7.4 °C 6.5 °C 1023.2 hPa NE 1.6 km/h 3.2 km/h 94 % 0.0 mm 0 W/m2
06:10 7.2 °C 6.5 °C 1023.2 hPa East 1.6 km/h 4.8 km/h 95 % 0.0 mm 0 W/m2
06:15 7.2 °C 6.5 °C 1023.2 hPa Calm   8.0 km/h 95 % 0.0 mm 0 W/m2
06:20 7.1 °C 6.4 °C 1023.2 hPa East 1.6 km/h 8.0 km/h 95 % 0.0 mm 0 W/m2
06:25 7.1 °C 6.4 °C 1023.2 hPa Calm   4.8 km/h 95 % 0.0 mm 0 W/m2
06:30 7.0 °C 6.3 °C 1023.2 hPa Calm   3.2 km/h 95 % 0.0 mm 0 W/m2
06:35 6.8 °C 6.1 °C 1023.6 hPa Calm   1.6 km/h 95 % 0.0 mm 0 W/m2
06:40 6.7 °C 5.9 °C 1023.2 hPa Calm   1.6 km/h 95 % 0.0 mm 0 W/m2
06:45 6.6 °C 5.8 °C 1023.6 hPa Calm   1.6 km/h 95 % 0.0 mm 5 W/m2
06:50 6.4 °C 5.9 °C 1023.6 hPa Calm   3.2 km/h 96 % 0.0 mm 7 W/m2
06:55 6.3 °C 5.7 °C 1023.6 hPa Calm   3.2 km/h 96 % 0.0 mm 9 W/m2
07:00 6.3 °C 5.7 °C 1023.6 hPa Calm   3.2 km/h 96 % 0.0 mm 12 W/m2
07:05 6.2 °C 5.6 °C 1023.9 hPa Calm   3.2 km/h 96 % 0.0 mm 16 W/m2
07:10 6.2 °C 5.6 °C 1023.9 hPa Calm   1.6 km/h 96 % 0.0 mm 19 W/m2
07:15 6.3 °C 5.7 °C 1023.9 hPa Calm   1.6 km/h 96 % 0.0 mm 23 W/m2
07:20 6.3 °C 5.7 °C 1023.9 hPa Calm   3.2 km/h 96 % 0.0 mm 26 W/m2
07:25 6.4 °C 5.9 °C 1023.9 hPa Calm   3.2 km/h 96 % 0.0 mm 28 W/m2
07:30 6.7 °C 6.1 °C 1023.9 hPa Calm   4.8 km/h 96 % 0.0 mm 32 W/m2
07:35 6.9 °C 6.4 °C 1023.9 hPa Calm   4.8 km/h 97 % 0.0 mm 35 W/m2
07:40 7.1 °C 6.6 °C 1023.9 hPa ENE 3.2 km/h 4.8 km/h 97 % 0.0 mm 39 W/m2
07:45 7.2 °C 6.7 °C 1023.9 hPa NNE 3.2 km/h 6.4 km/h 97 % 0.0 mm 42 W/m2
07:50 7.3 °C 6.9 °C 1023.9 hPa NNE 1.6 km/h 6.4 km/h 97 % 0.0 mm 44 W/m2
07:55 7.6 °C 7.1 °C 1023.9 hPa NE 3.2 km/h 9.7 km/h 97 % 0.0 mm 47 W/m2
08:00 7.8 °C 7.3 °C 1023.9 hPa NE 3.2 km/h 11.3 km/h 97 % 0.0 mm 51 W/m2
08:05 7.9 °C 7.5 °C 1023.9 hPa NE 3.2 km/h 11.3 km/h 97 % 0.0 mm 54 W/m2
08:10 8.1 °C 7.6 °C 1023.9 hPa Calm   8.0 km/h 97 % 0.0 mm 58 W/m2
08:15 8.2 °C 7.8 °C 1023.9 hPa North 1.6 km/h 6.4 km/h 97 % 0.0 mm 60 W/m2
08:20 8.4 °C 8.0 °C 1023.9 hPa NE 3.2 km/h 8.0 km/h 97 % 0.0 mm 63 W/m2
08:25 8.6 °C 8.0 °C 1023.9 hPa Calm   8.0 km/h 96 % 0.0 mm 67 W/m2
08:30 8.8 °C 8.2 °C 1023.9 hPa East 8.0 km/h 16.1 km/h 96 % 0.0 mm 141 W/m2
08:35 9.0 °C 8.2 °C 1023.9 hPa NE 6.4 km/h 16.1 km/h 95 % 0.0 mm 244 W/m2
08:40 9.3 °C 8.5 °C 1023.9 hPa East 9.7 km/h 16.1 km/h 95 % 0.0 mm 260 W/m2
08:45 9.5 °C 8.6 °C 1023.9 hPa East 1.6 km/h 16.1 km/h 94 % 0.0 mm 276 W/m2
08:50 9.7 °C 8.6 °C 1024.3 hPa SE 9.7 km/h 17.7 km/h 93 % 0.0 mm 285 W/m2
08:55 9.9 °C 8.5 °C 1024.3 hPa NE 9.7 km/h 17.7 km/h 91 % 0.0 mm 306 W/m2
09:00 10.1 °C 8.5 °C 1024.3 hPa East 16.1 km/h 17.7 km/h 90 % 0.0 mm 316 W/m2
09:05 10.3 °C 8.6 °C 1024.3 hPa East 9.7 km/h 17.7 km/h 89 % 0.0 mm 336 W/m2
09:10 10.7 °C 8.8 °C 1024.3 hPa ENE 8.0 km/h 17.7 km/h 88 % 0.0 mm 350 W/m2
09:15 10.8 °C 8.8 °C 1024.3 hPa East 9.7 km/h 16.1 km/h 87 % 0.0 mm 364 W/m2
09:20 11.1 °C 9.0 °C 1024.3 hPa East 11.3 km/h 17.7 km/h 87 % 0.0 mm 383 W/m2
09:25 11.0 °C 8.6 °C 1024.3 hPa ENE 4.8 km/h 17.7 km/h 85 % 0.0 mm 396 W/m2
09:30 11.3 °C 9.1 °C 1024.3 hPa East 3.2 km/h 14.5 km/h 86 % 0.0 mm 410 W/m2
09:35 11.6 °C 9.0 °C 1024.3 hPa East 12.9 km/h 14.5 km/h 84 % 0.0 mm 425 W/m2
09:40 11.7 °C 9.1 °C 1024.3 hPa East 8.0 km/h 16.1 km/h 84 % 0.0 mm 434 W/m2
09:45 11.8 °C 8.8 °C 1024.3 hPa ENE 3.2 km/h 16.1 km/h 82 % 0.0 mm 450 W/m2
09:50 12.1 °C 9.3 °C 1024.3 hPa ENE 1.6 km/h 16.1 km/h 83 % 0.0 mm 466 W/m2
09:55 12.2 °C 9.0 °C 1024.3 hPa ESE 8.0 km/h 14.5 km/h 81 % 0.0 mm 483 W/m2
10:00 12.3 °C 9.2 °C 1024.3 hPa Calm   14.5 km/h 81 % 0.0 mm 497 W/m2
10:05 12.4 °C 9.5 °C 1024.3 hPa East 14.5 km/h 14.5 km/h 82 % 0.0 mm 503 W/m2
10:10 12.7 °C 9.3 °C 1024.3 hPa East 3.2 km/h 14.5 km/h 80 % 0.0 mm 517 W/m2
10:15 12.9 °C 9.0 °C 1024.3 hPa East 12.9 km/h 14.5 km/h 77 % 0.0 mm 540 W/m2
10:20 12.7 °C 8.5 °C 1024.3 hPa ESE 3.2 km/h 14.5 km/h 76 % 0.0 mm 552 W/m2
10:25 12.9 °C 9.0 °C 1024.3 hPa ENE 6.4 km/h 14.5 km/h 77 % 0.0 mm 566 W/m2
10:30 13.1 °C 9.2 °C 1024.3 hPa NE 6.4 km/h 14.5 km/h 77 % 0.0 mm 584 W/m2
10:35 13.3 °C 8.9 °C 1024.3 hPa East 1.6 km/h 12.9 km/h 75 % 0.0 mm 599 W/m2
10:40 13.7 °C 9.7 °C 1024.3 hPa ENE 4.8 km/h 16.1 km/h 77 % 0.0 mm 605 W/m2
10:45 13.9 °C 9.4 °C 1024.3 hPa NE 4.8 km/h 16.1 km/h 74 % 0.0 mm 631 W/m2
10:50 13.9 °C 9.1 °C 1024.3 hPa Calm   11.3 km/h 73 % 0.0 mm 631 W/m2
10:55 14.0 °C 9.2 °C 1024.6 hPa ESE 1.6 km/h 16.1 km/h 73 % 0.0 mm 635 W/m2
11:00 14.2 °C 9.4 °C 1024.6 hPa ESE 6.4 km/h 16.1 km/h 73 % 0.0 mm 661 W/m2
11:05 14.3 °C 9.3 °C 1024.6 hPa East 8.0 km/h 16.1 km/h 72 % 0.0 mm 666 W/m2
11:10 14.6 °C 9.4 °C 1024.6 hPa East 3.2 km/h 16.1 km/h 71 % 0.0 mm 675 W/m2
11:15 14.8 °C 9.6 °C 1024.6 hPa SE 11.3 km/h 12.9 km/h 71 % 0.0 mm 687 W/m2
11:20 14.8 °C 9.8 °C 1024.3 hPa ENE 3.2 km/h 17.7 km/h 72 % 0.0 mm 701 W/m2
11:25 14.9 °C 9.7 °C 1024.3 hPa Calm   17.7 km/h 71 % 0.0 mm 705 W/m2
11:30 15.4 °C 10.6 °C 1024.3 hPa East 9.7 km/h 12.9 km/h 73 % 0.0 mm 721 W/m2
11:35 15.3 °C 10.1 °C 1024.3 hPa ENE 4.8 km/h 14.5 km/h 71 % 0.0 mm 728 W/m2
11:40 15.5 °C 10.5 °C 1024.3 hPa NE 9.7 km/h 19.3 km/h 72 % 0.0 mm 737 W/m2
11:45 15.8 °C 10.6 °C 1024.3 hPa Calm   19.3 km/h 71 % 0.0 mm 742 W/m2
11:50 16.1 °C 10.8 °C 1024.3 hPa ENE 6.4 km/h 12.9 km/h 71 % 0.0 mm 756 W/m2
11:55 15.8 °C 10.4 °C 1024.3 hPa SE 6.4 km/h 12.9 km/h 70 % 0.0 mm 768 W/m2
12:00 15.9 °C 10.5 °C 1024.3 hPa North 8.0 km/h 12.9 km/h 70 % 0.0 mm 768 W/m2
12:05 15.9 °C 10.0 °C 1024.3 hPa East 14.5 km/h 14.5 km/h 68 % 0.0 mm 784 W/m2
12:10 16.1 °C 10.8 °C 1024.3 hPa NNW 4.8 km/h 14.5 km/h 71 % 0.0 mm 789 W/m2
12:15 16.3 °C 10.6 °C 1024.3 hPa SE 4.8 km/h 17.7 km/h 69 % 0.0 mm 796 W/m2
12:20 16.4 °C 11.0 °C 1024.3 hPa ENE 11.3 km/h 17.7 km/h 70 % 0.0 mm 807 W/m2
12:25 16.3 °C 10.4 °C 1024.3 hPa East 8.0 km/h 14.5 km/h 68 % 0.0 mm 809 W/m2
12:30 16.7 °C 11.2 °C 1023.9 hPa NNE 3.2 km/h 17.7 km/h 70 % 0.0 mm 824 W/m2
12:35 16.8 °C 10.9 °C 1023.9 hPa ENE 3.2 km/h 17.7 km/h 68 % 0.0 mm 824 W/m2
12:40 17.7 °C 12.1 °C 1023.9 hPa East 1.6 km/h 17.7 km/h 70 % 0.0 mm 837 W/m2
12:45 17.8 °C 11.3 °C 1023.9 hPa NNE 3.2 km/h 17.7 km/h 66 % 0.0 mm 828 W/m2
12:50 17.5 °C 11.3 °C 1023.9 hPa Calm   14.5 km/h 67 % 0.0 mm 830 W/m2
12:55 17.1 °C 11.8 °C 1023.9 hPa ESE 1.6 km/h 14.5 km/h 71 % 0.0 mm 826 W/m2
13:00 17.6 °C 11.0 °C 1023.9 hPa ENE 8.0 km/h 17.7 km/h 65 % 0.0 mm 847 W/m2
13:05 17.6 °C 11.6 °C 1023.9 hPa North 1.6 km/h 17.7 km/h 68 % 0.0 mm 838 W/m2
13:10 17.6 °C 10.9 °C 1023.9 hPa North 4.8 km/h 16.1 km/h 65 % 0.0 mm 849 W/m2
13:15 17.4 °C 11.2 °C 1023.9 hPa North 4.8 km/h 16.1 km/h 67 % 0.0 mm 865 W/m2
13:20 17.9 °C 11.9 °C 1023.6 hPa NNE 4.8 km/h 16.1 km/h 68 % 0.0 mm 874 W/m2
13:25 18.1 °C 11.9 °C 1023.6 hPa North 3.2 km/h 16.1 km/h 67 % 0.0 mm 865 W/m2
13:30 18.3 °C 12.3 °C 1023.6 hPa SSE 3.2 km/h 16.1 km/h 68 % 0.0 mm 868 W/m2
13:40 17.9 °C 11.7 °C 1023.6 hPa Calm   17.7 km/h 67 % 0.0 mm 870 W/m2
13:50 18.8 °C 13.0 °C 1023.6 hPa ENE 3.2 km/h 20.9 km/h 69 % 0.0 mm 891 W/m2
13:55 18.7 °C 11.8 °C 1023.6 hPa NE 4.8 km/h 20.9 km/h 64 % 0.0 mm 895 W/m2
14:00 18.8 °C 12.1 °C 1023.6 hPa ENE 4.8 km/h 25.7 km/h 65 % 0.0 mm 900 W/m2
14:05 18.8 °C 13.0 °C 1023.2 hPa ENE 4.8 km/h 25.7 km/h 69 % 0.0 mm 914 W/m2
14:10 19.1 °C 11.9 °C 1023.2 hPa East 20.9 km/h 20.9 km/h 63 % 0.0 mm 919 W/m2
14:15 18.7 °C 12.4 °C 1023.2 hPa NE 6.4 km/h 20.9 km/h 67 % 0.0 mm 719 W/m2
14:20 18.7 °C 12.0 °C 1023.2 hPa NE 4.8 km/h 20.9 km/h 65 % 0.0 mm 884 W/m2
14:25 19.1 °C 12.1 °C 1023.2 hPa NE 6.4 km/h 19.3 km/h 64 % 0.0 mm 933 W/m2
14:30 19.4 °C 12.7 °C 1023.2 hPa NE 3.2 km/h 19.3 km/h 65 % 0.0 mm 951 W/m2
14:35 19.5 °C 11.8 °C 1023.2 hPa NE 8.0 km/h 22.5 km/h 61 % 0.0 mm 981 W/m2
14:40 19.9 °C 12.9 °C 1023.2 hPa NE 17.7 km/h 22.5 km/h 64 % 0.0 mm 1027 W/m2
14:45 19.6 °C 11.6 °C 1023.2 hPa NNE 17.7 km/h 22.5 km/h 60 % 0.0 mm 916 W/m2
14:50 19.6 °C 11.6 °C 1023.2 hPa NE 12.9 km/h 22.5 km/h 60 % 0.0 mm 893 W/m2
14:55 19.6 °C 12.1 °C 1022.9 hPa East 8.0 km/h 22.5 km/h 62 % 0.0 mm 988 W/m2
15:00 19.2 °C 12.0 °C 1022.9 hPa NE 11.3 km/h 22.5 km/h 63 % 0.0 mm 420 W/m2
15:05 19.1 °C 12.1 °C 1022.9 hPa NE 11.3 km/h 17.7 km/h 64 % 0.0 mm 925 W/m2
15:10 19.4 °C 12.5 °C 1022.9 hPa NNE 14.5 km/h 19.3 km/h 64 % 0.0 mm 1021 W/m2
15:15 19.1 °C 12.1 °C 1022.9 hPa North 6.4 km/h 19.3 km/h 64 % 0.0 mm 439 W/m2
15:20 18.6 °C 11.1 °C 1022.9 hPa ENE 6.4 km/h 17.7 km/h 62 % 0.0 mm 295 W/m2
15:25 19.0 °C 12.3 °C 1022.9 hPa East 8.0 km/h 17.7 km/h 65 % 0.0 mm 947 W/m2
15:30 19.3 °C 12.3 °C 1022.6 hPa NE 3.2 km/h 17.7 km/h 64 % 0.0 mm 914 W/m2
15:35 20.1 °C 12.3 °C 1022.6 hPa East 14.5 km/h 17.7 km/h 61 % 0.0 mm 933 W/m2
15:40 20.2 °C 13.2 °C 1022.6 hPa North 11.3 km/h 19.3 km/h 64 % 0.0 mm 849 W/m2
15:45 20.1 °C 12.5 °C 1022.6 hPa NE 9.7 km/h 19.3 km/h 62 % 0.0 mm 828 W/m2
15:50 19.7 °C 11.5 °C 1022.6 hPa NNE 14.5 km/h 19.3 km/h 59 % 0.0 mm 823 W/m2
15:55 18.8 °C 11.1 °C 1022.6 hPa NNE 6.4 km/h 19.3 km/h 61 % 0.0 mm 315 W/m2
16:00 18.8 °C 12.6 °C 1022.6 hPa NE 8.0 km/h 17.7 km/h 67 % 0.0 mm 283 W/m2
16:05 19.1 °C 11.2 °C 1022.2 hPa NE 12.9 km/h 16.1 km/h 60 % 0.0 mm 179 W/m2
16:10 18.5 °C 11.3 °C 1022.2 hPa NNE 4.8 km/h 20.9 km/h 63 % 0.0 mm 213 W/m2
16:15 18.3 °C 11.3 °C 1022.2 hPa North 6.4 km/h 20.9 km/h 64 % 0.0 mm 234 W/m2
16:20 18.6 °C 12.1 °C 1022.2 hPa East 4.8 km/h 16.1 km/h 66 % 0.0 mm 798 W/m2
16:25 19.9 °C 11.7 °C 1022.2 hPa NE 4.8 km/h 19.3 km/h 59 % 0.0 mm 773 W/m2
16:30 19.2 °C 12.0 °C 1022.2 hPa NE 9.7 km/h 19.3 km/h 63 % 0.0 mm 204 W/m2
16:35 19.4 °C 13.1 °C 1022.2 hPa NNE 8.0 km/h 19.3 km/h 67 % 0.0 mm 782 W/m2
16:40 19.3 °C 11.8 °C 1021.9 hPa North 9.7 km/h 25.7 km/h 62 % 0.0 mm 171 W/m2
16:45 18.4 °C 11.7 °C 1021.9 hPa ENE 16.1 km/h 25.7 km/h 65 % 0.0 mm 745 W/m2
16:50 19.2 °C 12.9 °C 1021.9 hPa NNE 4.8 km/h 24.1 km/h 67 % 0.0 mm 700 W/m2
16:55 19.6 °C 12.3 °C 1021.9 hPa NE 17.7 km/h 24.1 km/h 63 % 0.0 mm 652 W/m2
17:00 19.6 °C 12.4 °C 1021.9 hPa East 6.4 km/h 25.7 km/h 63 % 0.0 mm 671 W/m2
17:05 19.6 °C 12.1 °C 1021.9 hPa East 16.1 km/h 25.7 km/h 62 % 0.0 mm 636 W/m2
17:10 19.4 °C 12.0 °C 1021.9 hPa ENE 11.3 km/h 25.7 km/h 62 % 0.0 mm 638 W/m2
17:15 19.2 °C 12.0 °C 1021.9 hPa North 9.7 km/h 25.7 km/h 63 % 0.0 mm 591 W/m2
17:20 19.4 °C 11.7 °C 1021.9 hPa NW 6.4 km/h 20.9 km/h 61 % 0.0 mm 591 W/m2
17:25 19.2 °C 11.5 °C 1021.9 hPa ENE 8.0 km/h 22.5 km/h 61 % 0.0 mm 541 W/m2
17:30 19.1 °C 10.9 °C 1021.9 hPa NE 8.0 km/h 22.5 km/h 59 % 0.0 mm 591 W/m2
17:35 19.3 °C 12.1 °C 1021.9 hPa NE 3.2 km/h 22.5 km/h 63 % 0.0 mm 606 W/m2
17:40 19.4 °C 11.7 °C 1021.6 hPa ENE 4.8 km/h 24.1 km/h 61 % 0.0 mm 533 W/m2
17:45 19.7 °C 12.2 °C 1021.6 hPa NE 3.2 km/h 24.1 km/h 62 % 0.0 mm 564 W/m2
17:50 19.8 °C 12.0 °C 1021.6 hPa North 6.4 km/h 17.7 km/h 61 % 0.0 mm 538 W/m2
17:55 19.4 °C 11.2 °C 1021.6 hPa ENE 11.3 km/h 19.3 km/h 59 % 0.0 mm 302 W/m2
18:00 19.3 °C 11.8 °C 1021.6 hPa NE 6.4 km/h 19.3 km/h 62 % 0.0 mm 621 W/m2
18:05 19.7 °C 12.2 °C 1021.6 hPa NE 6.4 km/h 16.1 km/h 62 % 0.0 mm 642 W/m2
18:10 19.6 °C 11.9 °C 1021.6 hPa ENE 12.9 km/h 22.5 km/h 61 % 0.0 mm 283 W/m2
18:15 19.5 °C 11.8 °C 1021.6 hPa NE 8.0 km/h 22.5 km/h 61 % 0.0 mm 527 W/m2
18:20 19.2 °C 11.8 °C 1021.6 hPa NNW 9.7 km/h 20.9 km/h 62 % 0.0 mm 480 W/m2
18:25 19.3 °C 12.1 °C 1021.6 hPa NE 6.4 km/h 17.7 km/h 63 % 0.0 mm 461 W/m2
18:30 19.3 °C 11.6 °C 1021.6 hPa NNE 17.7 km/h 25.7 km/h 61 % 0.0 mm 450 W/m2
18:35 19.1 °C 11.6 °C 1021.6 hPa NNE 6.4 km/h 25.7 km/h 62 % 0.0 mm 420 W/m2
18:40 19.0 °C 11.6 °C 1021.6 hPa Calm   20.9 km/h 62 % 0.0 mm 404 W/m2
18:45 19.1 °C 11.7 °C 1021.6 hPa NE 4.8 km/h 16.1 km/h 62 % 0.0 mm 338 W/m2
18:50 18.9 °C 11.7 °C 1021.6 hPa NNE 6.4 km/h 17.7 km/h 63 % 0.0 mm 353 W/m2
18:55 18.6 °C 11.4 °C 1021.6 hPa ENE 6.4 km/h 17.7 km/h 63 % 0.0 mm 144 W/m2
19:00 18.1 °C 11.4 °C 1021.6 hPa NNE 6.4 km/h 17.7 km/h 65 % 0.0 mm 320 W/m2
19:05 18.1 °C 11.7 °C 1021.6 hPa NNE 6.4 km/h 17.7 km/h 66 % 0.0 mm 279 W/m2
19:10 18.3 °C 11.3 °C 1021.6 hPa ENE 8.0 km/h 16.1 km/h 64 % 0.0 mm 301 W/m2
19:15 18.4 °C 11.7 °C 1021.6 hPa NNW 3.2 km/h 14.5 km/h 65 % 0.0 mm 292 W/m2
19:25 18.2 °C 11.2 °C 1021.6 hPa East 12.9 km/h 19.3 km/h 64 % 0.0 mm 207 W/m2
19:30 17.8 °C 11.1 °C 1021.6 hPa Calm   20.9 km/h 65 % 0.0 mm 53 W/m2
19:35 17.3 °C 11.3 °C 1021.6 hPa East 11.3 km/h 20.9 km/h 68 % 0.0 mm 197 W/m2
19:40 17.3 °C 11.4 °C 1021.6 hPa NE 4.8 km/h 14.5 km/h 68 % 0.0 mm 193 W/m2
19:45 17.4 °C 11.0 °C 1021.6 hPa NNE 6.4 km/h 19.3 km/h 66 % 0.0 mm 185 W/m2
19:50 17.3 °C 10.7 °C 1021.6 hPa East 8.0 km/h 19.3 km/h 65 % 0.0 mm 163 W/m2
19:55 17.2 °C 10.3 °C 1021.6 hPa NE 8.0 km/h 19.3 km/h 64 % 0.0 mm 162 W/m2
20:00 16.9 °C 9.8 °C 1021.6 hPa NE 3.2 km/h 19.3 km/h 63 % 0.0 mm 144 W/m2
20:05 16.8 °C 9.7 °C 1021.6 hPa North 4.8 km/h 16.1 km/h 63 % 0.0 mm 100 W/m2
20:10 16.7 °C 9.3 °C 1021.6 hPa ENE 4.8 km/h 16.1 km/h 62 % 0.0 mm 111 W/m2
20:15 16.5 °C 9.7 °C 1021.6 hPa NE 3.2 km/h 16.1 km/h 64 % 0.0 mm 95 W/m2
20:20 16.3 °C 9.7 °C 1021.6 hPa NNE 4.8 km/h 12.9 km/h 65 % 0.0 mm 63 W/m2
20:25 16.2 °C 9.6 °C 1021.6 hPa Calm   17.7 km/h 65 % 0.0 mm 42 W/m2
20:30 16.0 °C 9.4 °C 1021.6 hPa East 9.7 km/h 17.7 km/h 65 % 0.0 mm 37 W/m2
20:35 15.7 °C 9.8 °C 1021.6 hPa ENE 1.6 km/h 14.5 km/h 68 % 0.0 mm 37 W/m2
20:40 15.5 °C 9.6 °C 1021.6 hPa ENE 3.2 km/h 14.5 km/h 68 % 0.0 mm 35 W/m2
20:45 15.3 °C 9.7 °C 1021.6 hPa ENE 1.6 km/h 14.5 km/h 69 % 0.0 mm 30 W/m2
20:50 15.2 °C 9.5 °C 1021.6 hPa East 1.6 km/h 12.9 km/h 69 % 0.0 mm 28 W/m2
20:55 15.1 °C 9.7 °C 1021.6 hPa Calm   9.7 km/h 70 % 0.0 mm 28 W/m2
21:00 14.9 °C 9.7 °C 1021.6 hPa NNE 3.2 km/h 9.7 km/h 71 % 0.0 mm 21 W/m2
21:05 14.8 °C 9.8 °C 1021.6 hPa ENE 3.2 km/h 9.7 km/h 72 % 0.0 mm 21 W/m2
21:10 14.6 °C 9.8 °C 1021.9 hPa Calm   6.4 km/h 73 % 0.0 mm 19 W/m2
21:15 14.3 °C 9.7 °C 1021.9 hPa ENE 1.6 km/h 6.4 km/h 74 % 0.0 mm 12 W/m2
21:20 14.1 °C 9.7 °C 1021.9 hPa NE 1.6 km/h 6.4 km/h 75 % 0.0 mm 7 W/m2
21:25 13.8 °C 9.6 °C 1021.9 hPa NE 8.0 km/h 8.0 km/h 76 % 0.0 mm 0 W/m2
21:30 13.7 °C 9.8 °C 1021.9 hPa ENE 3.2 km/h 8.0 km/h 77 % 0.0 mm 0 W/m2
21:35 13.4 °C 9.7 °C 1021.9 hPa ENE 1.6 km/h 8.0 km/h 78 % 0.0 mm 0 W/m2
21:40 13.3 °C 9.6 °C 1021.9 hPa North 1.6 km/h 9.7 km/h 78 % 0.0 mm 0 W/m2
21:45 13.3 °C 9.5 °C 1021.9 hPa Calm   9.7 km/h 78 % 0.0 mm 0 W/m2
21:50 13.3 °C 9.4 °C 1021.9 hPa NE 1.6 km/h 9.7 km/h 77 % 0.0 mm 0 W/m2
21:55 13.3 °C 9.1 °C 1021.9 hPa Calm   9.7 km/h 76 % 0.0 mm 0 W/m2
22:00 13.1 °C 9.1 °C 1021.9 hPa East 8.0 km/h 14.5 km/h 77 % 0.0 mm 0 W/m2
22:05 13.2 °C 9.0 °C 1022.2 hPa NE 6.4 km/h 19.3 km/h 76 % 0.0 mm 0 W/m2
22:10 13.2 °C 8.9 °C 1022.2 hPa NNE 6.4 km/h 20.9 km/h 75 % 0.0 mm 0 W/m2
22:15 13.2 °C 8.9 °C 1022.2 hPa ENE 8.0 km/h 20.9 km/h 75 % 0.0 mm 0 W/m2
22:20 13.2 °C 8.8 °C 1022.2 hPa East 8.0 km/h 19.3 km/h 75 % 0.0 mm 0 W/m2
22:25 13.0 °C 8.9 °C 1022.2 hPa East 12.9 km/h 20.9 km/h 76 % 0.0 mm 0 W/m2
22:30 12.9 °C 8.8 °C 1022.2 hPa East 22.5 km/h 24.1 km/h 76 % 0.0 mm 0 W/m2
22:35 12.7 °C 8.8 °C 1022.6 hPa East 3.2 km/h 24.1 km/h 77 % 0.0 mm 0 W/m2
22:40 12.6 °C 8.8 °C 1022.2 hPa ENE 12.9 km/h 25.7 km/h 78 % 0.0 mm 0 W/m2
22:45 12.3 °C 8.8 °C 1022.6 hPa East 3.2 km/h 25.7 km/h 79 % 0.0 mm 0 W/m2
22:50 12.1 °C 8.8 °C 1022.6 hPa East 14.5 km/h 17.7 km/h 80 % 0.0 mm 0 W/m2
22:55 11.8 °C 8.5 °C 1022.6 hPa NE 11.3 km/h 25.7 km/h 80 % 0.0 mm 0 W/m2
23:00 11.7 °C 8.3 °C 1022.6 hPa NE 3.2 km/h 30.6 km/h 80 % 0.0 mm 0 W/m2
23:05 11.6 °C 8.4 °C 1022.9 hPa ENE 6.4 km/h 30.6 km/h 81 % 0.0 mm 0 W/m2
23:10 11.4 °C 8.1 °C 1022.9 hPa NE 11.3 km/h 29.0 km/h 80 % 0.0 mm 0 W/m2
23:15 11.1 °C 7.8 °C 1022.9 hPa East 11.3 km/h 29.0 km/h 80 % 0.0 mm 0 W/m2
23:20 10.9 °C 7.8 °C 1022.6 hPa East 12.9 km/h 22.5 km/h 81 % 0.0 mm 0 W/m2
23:25 10.9 °C 7.8 °C 1022.9 hPa East 11.3 km/h 24.1 km/h 81 % 0.0 mm 0 W/m2
23:30 10.7 °C 7.6 °C 1022.6 hPa ENE 3.2 km/h 29.0 km/h 81 % 0.0 mm 0 W/m2
23:35 10.6 °C 7.4 °C 1022.6 hPa ENE 14.5 km/h 29.0 km/h 81 % 0.0 mm 0 W/m2
23:40 10.3 °C 7.4 °C 1022.6 hPa East 9.7 km/h 19.3 km/h 82 % 0.0 mm 0 W/m2
23:45 10.3 °C 7.2 °C 1022.9 hPa NE 6.4 km/h 20.9 km/h 81 % 0.0 mm 0 W/m2
23:50 10.2 °C 7.3 °C 1022.9 hPa East 17.7 km/h 20.9 km/h 82 % 0.0 mm 0 W/m2
23:55 10.2 °C 7.2 °C 1022.9 hPa East 9.7 km/h 20.9 km/h 82 % 0.0 mm 0 W/m2
Avec l'autorisation de Weather Underground - 1.75 mb